Time;durP1;ratioP1;P1;durP2;ratioP2;P2;SDS_P1;SDS_P2;PMS_P1;PMS_P2;Temp;Humidity;BMP_temperature;BMP_pressure;BME280_temperature;BME280_humidity;BME280_pressure;Samples;Min_cycle;Max_cycle;Signal;HPM_P1;HPM_P2
2022/05/01 00:00:27;;;;;;;45.03;14.58;;;;;;;9.39;47.32;101332.50;1668192;85;25929;-61
2022/05/01 00:02:55;;;;;;;44.75;16.97;;;;;;;9.35;47.45;101332.17;1663611;85;98128;-61
2022/05/01 00:05:23;;;;;;;34.60;14.87;;;;;;;9.31;47.58;101334.51;1665908;85;26095;-61
2022/05/01 00:07:49;;;;;;;34.73;16.05;;;;;;;9.24;47.74;101332.46;1644623;85;25780;-61
2022/05/01 00:10:17;;;;;;;42.10;16.15;;;;;;;9.21;47.89;101331.66;1667271;85;98824;-61
2022/05/01 00:12:45;;;;;;;42.38;16.65;;;;;;;9.16;48.07;101329.11;1661977;85;25808;-61
2022/05/01 00:15:12;;;;;;;37.50;16.62;;;;;;;9.11;48.27;101327.02;1687578;84;98959;-61
2022/05/01 00:17:38;;;;;;;47.93;16.27;;;;;;;9.07;48.37;101326.22;1662317;85;25722;-60
2022/05/01 00:20:05;;;;;;;38.92;17.02;;;;;;;9.03;48.50;101327.68;1660114;85;26445;-61
2022/05/01 00:22:31;;;;;;;42.13;16.87;;;;;;;8.97;48.71;101323.37;1682575;84;98768;-61
2022/05/01 00:24:59;;;;;;;50.12;17.30;;;;;;;8.92;48.87;101320.39;1665845;85;25723;-61
2022/05/01 00:27:26;;;;;;;41.50;16.67;;;;;;;8.88;49.04;101321.39;1663327;85;98775;-61
2022/05/01 00:29:52;;;;;;;47.95;17.55;;;;;;;8.84;49.15;101318.37;1666743;85;26656;-60
2022/05/01 00:32:18;;;;;;;45.73;17.55;;;;;;;8.80;49.28;101318.91;1682239;83;25762;-61
2022/05/01 00:37:28;;;;;;;48.23;18.25;;;;;;;8.71;49.64;101322.69;1669506;84;25773;-60
2022/05/01 00:39:54;;;;;;;49.77;18.62;;;;;;;8.59;49.80;101315.44;1661947;85;98882;-59
2022/05/01 00:42:23;;;;;;;41.23;17.73;;;;;;;8.62;49.89;101322.92;1660917;85;25905;-59
2022/05/01 00:44:50;;;;;;;46.42;17.65;;;;;;;8.59;50.04;101324.33;1663774;85;98899;-60
2022/05/01 00:47:16;;;;;;;51.40;18.37;;;;;;;8.56;50.15;101321.73;1652124;85;26403;-61
2022/05/01 00:49:42;;;;;;;50.30;17.57;;;;;;;8.53;50.26;101318.25;1659086;86;26588;-59
2022/05/01 00:52:10;;;;;;;43.02;17.27;;;;;;;8.48;50.38;101315.70;1709765;83;98901;-60
2022/05/01 00:54:42;;;;;;;39.95;17.23;;;;;;;8.45;50.56;101317.10;1706448;83;26066;-60
2022/05/01 00:57:09;;;;;;;52.98;18.27;;;;;;;8.42;50.69;101313.17;1710707;83;98794;-60
2022/05/01 00:59:36;;;;;;;44.88;18.65;;;;;;;8.39;50.80;101319.92;1693352;83;26861;-60
2022/05/01 01:02:07;;;;;;;41.75;16.62;;;;;;;8.35;50.95;101318.23;1677829;85;26485;-59
2022/05/01 01:04:33;;;;;;;44.45;17.35;;;;;;;8.32;51.08;101318.27;1661665;85;98960;-59
2022/05/01 01:07:04;;;;;;;44.27;17.87;;;;;;;8.30;51.24;101312.09;1709919;83;25844;-60
2022/05/01 01:09:35;;;;;;;40.98;18.05;;;;;;;8.30;51.37;101312.97;1706921;83;98907;-60
2022/05/01 01:14:48;;;;;;;41.88;18.23;;;;;;;8.27;51.56;101309.03;1707971;83;99076;-60
2022/05/01 01:17:16;;;;;;;35.50;17.42;;;;;;;8.25;51.72;101306.85;1710258;83;27904;-60
2022/05/01 01:19:42;;;;;;;40.52;17.40;;;;;;;8.23;51.85;101309.14;1708372;83;25946;-60
2022/05/01 01:22:09;;;;;;;38.95;17.15;;;;;;;8.20;51.98;101308.75;1707308;83;98961;-61
2022/05/01 01:24:43;;;;;;;49.13;18.55;;;;;;;8.20;52.15;101313.22;1668125;85;25737;-60
2022/05/01 01:27:10;;;;;;;45.65;17.80;;;;;;;8.18;52.26;101313.25;1671309;85;99062;-60
2022/05/01 01:32:26;;;;;;;49.03;17.48;;;;;;;8.13;52.47;101312.02;1656137;85;25851;-60
2022/05/01 01:34:54;;;;;;;44.45;19.12;;;;;;;8.11;52.60;101312.97;1661645;84;98692;-61
2022/05/01 01:37:24;;;;;;;41.65;17.52;;;;;;;8.08;52.72;101310.36;1657866;85;26681;-61
2022/05/01 01:39:53;;;;;;;45.40;18.35;;;;;;;8.06;52.79;101309.06;1655083;85;98846;-61
2022/05/01 01:42:22;;;;;;;43.95;19.40;;;;;;;8.04;52.86;101305.55;1649597;86;27477;-60
2022/05/01 01:44:50;;;;;;;45.00;18.15;;;;;;;8.01;52.94;101314.96;1655137;86;99123;-61
2022/05/01 01:47:18;;;;;;;48.65;18.40;;;;;;;7.98;53.03;101312.81;1657376;86;26085;-61
2022/05/01 01:49:44;;;;;;;50.15;19.85;;;;;;;7.93;53.10;101311.58;1656171;85;25789;-60
2022/05/01 01:52:12;;;;;;;44.83;19.95;;;;;;;7.90;53.14;101312.10;1659356;86;98628;-61
2022/05/01 01:54:38;;;;;;;45.60;18.37;;;;;;;7.87;53.21;101310.84;1705223;83;29494;-61
2022/05/01 01:57:06;;;;;;;39.05;17.12;;;;;;;7.85;53.24;101313.53;1703907;83;98981;-61
2022/05/01 01:59:32;;;;;;;40.03;18.12;;;;;;;7.82;53.32;101308.27;1664442;85;25760;-60
2022/05/01 02:01:58;;;;;;;36.25;18.52;;;;;;;7.80;53.42;101309.62;1658198;86;25887;-60
2022/05/01 02:04:25;;;;;;;46.10;18.20;;;;;;;7.79;53.48;101305.23;1660935;85;98863;-62
2022/05/01 02:06:52;;;;;;;42.50;17.57;;;;;;;7.78;53.52;101307.94;1662187;85;27456;-60
2022/05/01 02:09:18;;;;;;;40.35;18.77;;;;;;;7.75;53.59;101305.34;1660392;86;98853;-60
2022/05/01 02:11:44;;;;;;;45.12;18.12;;;;;;;7.73;53.65;101307.16;1654786;86;25813;-60
2022/05/01 02:14:10;;;;;;;42.90;17.77;;;;;;;7.70;53.67;101307.22;1658877;86;26459;-61
2022/05/01 02:16:39;;;;;;;50.60;18.37;;;;;;;7.66;53.72;101309.53;1658617;86;97878;-60
2022/05/01 02:19:07;;;;;;;47.80;17.57;;;;;;;7.62;53.78;101306.50;1659586;86;27545;-60
2022/05/01 02:21:36;;;;;;;42.38;18.30;;;;;;;7.57;53.86;101303.93;1648832;86;98703;-60
2022/05/01 02:24:10;;;;;;;44.67;17.52;;;;;;;7.55;53.94;101311.09;1658434;86;25826;-60
2022/05/01 02:26:41;;;;;;;41.30;17.95;;;;;;;7.54;54.01;101309.78;1658334;85;99070;-60
2022/05/01 02:29:10;;;;;;;38.33;16.70;;;;;;;7.52;54.10;101306.27;1660699;85;25433;-60
2022/05/01 02:31:42;;;;;;;42.03;17.42;;;;;;;7.48;54.16;101301.00;1656742;86;46588;-60
2022/05/01 02:34:12;;;;;;;41.50;18.45;;;;;;;7.47;54.20;101299.23;1649456;85;98819;-62
2022/05/01 02:36:39;;;;;;;36.05;16.82;;;;;;;7.46;54.28;101302.81;1663327;85;25765;-60
2022/05/01 02:39:05;;;;;;;41.98;18.48;;;;;;;7.44;54.32;101301.97;1661093;85;99066;-60
2022/05/01 02:41:33;;;;;;;37.00;17.67;;;;;;;7.43;54.41;101304.20;1669134;85;25873;-60
2022/05/01 02:44:02;;;;;;;40.30;16.65;;;;;;;7.43;54.43;101302.00;1664332;85;27437;-60
2022/05/01 02:46:28;;;;;;;43.87;17.95;;;;;;;7.42;54.51;101305.12;1652502;84;98997;-60
2022/05/01 02:48:54;;;;;;;41.98;17.48;;;;;;;7.41;54.58;101300.69;1668792;84;25775;-59
2022/05/01 02:51:25;;;;;;;42.08;17.40;;;;;;;7.42;54.59;101301.12;1664591;85;98895;-59
2022/05/01 02:53:52;;;;;;;35.63;17.20;;;;;;;7.41;54.66;101303.81;1670023;85;25763;-59
2022/05/01 02:56:18;;;;;;;36.58;17.48;;;;;;;7.39;54.73;101302.52;1670695;85;27380;-59
2022/05/01 02:58:47;;;;;;;43.80;17.32;;;;;;;7.40;54.77;101304.27;1683897;84;98872;-60
2022/05/01 03:01:17;;;;;;;36.98;16.82;;;;;;;7.39;54.80;101302.97;1676511;83;25890;-60
2022/05/01 03:03:42;;;;;;;39.10;18.07;;;;;;;7.38;54.89;101300.75;1655120;86;98942;-59
2022/05/01 03:06:08;;;;;;;37.25;17.25;;;;;;;7.37;54.93;101296.33;1655180;84;25783;-60
2022/05/01 03:08:36;;;;;;;48.95;17.27;;;;;;;7.36;55.03;101297.69;1669936;85;99212;-60
2022/05/01 03:11:02;;;;;;;39.75;17.02;;;;;;;7.35;55.07;101296.81;1664575;85;25735;-59
2022/05/01 03:13:28;;;;;;;37.65;17.42;;;;;;;7.33;55.13;101294.63;1660883;85;25755;-60
2022/05/01 03:15:54;;;;;;;38.58;16.60;;;;;;;7.33;55.13;101295.09;1680980;84;99233;-59
2022/05/01 03:23:49;;;;;;;37.95;16.40;;;;;;;7.23;55.30;101294.84;1668718;85;25890;-60
2022/05/01 03:26:19;;;;;;;36.58;16.77;;;;;;;7.21;55.35;101296.66;1666642;85;25805;-60
2022/05/01 03:28:46;;;;;;;39.35;16.70;;;;;;;7.20;55.47;101302.44;1660891;85;98753;-60
2022/05/01 03:31:13;;;;;;;38.13;16.57;;;;;;;7.19;55.53;101302.02;1669520;85;25958;-60
2022/05/01 03:33:39;;;;;;;41.05;16.90;;;;;;;7.16;55.54;101296.74;1664401;85;98754;-60
2022/05/01 03:36:09;;;;;;;41.10;17.98;;;;;;;7.15;55.63;101297.65;1660673;86;26239;-60
2022/05/01 03:38:41;;;;;;;38.90;17.57;;;;;;;7.13;55.62;101296.80;1672945;84;98813;-60
2022/05/01 03:41:12;;;;;;;41.50;17.23;;;;;;;7.11;55.71;101295.50;1658127;86;26213;-60
2022/05/01 03:43:38;;;;;;;36.08;16.82;;;;;;;7.10;55.76;101299.06;1654075;86;25735;-61
2022/05/01 03:46:05;;;;;;;32.58;15.48;;;;;;;7.09;55.78;101297.77;1659477;85;98751;-60
2022/05/01 03:48:33;;;;;;;39.92;15.65;;;;;;;7.08;55.87;101298.67;1661235;86;25822;-61
2022/05/01 03:51:00;;;;;;;34.70;15.78;;;;;;;7.07;55.89;101302.25;1662695;85;98979;-61
2022/05/01 03:53:29;;;;;;;33.53;16.35;;;;;;;7.05;55.97;101300.94;1704284;83;26273;-61
2022/05/01 03:55:56;;;;;;;38.42;16.12;;;;;;;7.05;55.99;101298.27;1702234;83;25717;-62
2022/05/01 03:58:23;;;;;;;42.95;17.35;;;;;;;7.04;56.03;101304.52;1671493;83;98717;-61
2022/05/01 04:00:50;;;;;;;38.92;16.20;;;;;;;7.03;56.07;101305.88;1665834;84;25831;-61
2022/05/01 04:03:20;;;;;;;36.68;16.95;;;;;;;7.04;56.11;101307.63;1669545;84;98969;-59
2022/05/01 04:05:50;;;;;;;41.05;16.27;;;;;;;7.05;56.18;101308.06;1676113;84;25948;-61
2022/05/01 04:08:16;;;;;;;44.95;16.93;;;;;;;7.05;56.20;101299.61;1671833;84;25829;-61
2022/05/01 04:10:47;;;;;;;47.78;16.27;;;;;;;7.06;56.24;101305.36;1666489;84;98820;-62
2022/05/01 04:13:14;;;;;;;42.65;15.40;;;;;;;7.07;56.21;101299.58;1665654;84;25700;-62
2022/05/01 04:15:43;;;;;;;40.40;15.03;;;;;;;7.08;56.30;101300.00;1671126;83;98848;-61
2022/05/01 04:18:09;;;;;;;34.20;15.98;;;;;;;7.07;56.32;101298.25;1671799;84;25815;-62
2022/05/01 04:20:39;;;;;;;39.00;15.88;;;;;;;7.09;56.40;101303.09;1666586;84;99005;-61
2022/05/01 04:23:07;;;;;;;37.78;16.23;;;;;;;7.09;56.38;101304.43;1693434;84;28128;-62
2022/05/01 04:25:35;;;;;;;35.95;14.95;;;;;;;7.09;56.42;101306.64;1696890;84;25802;-61
2022/05/01 04:28:08;;;;;;;35.98;14.53;;;;;;;7.10;56.46;101304.85;1693330;83;98793;-61
2022/05/01 04:30:35;;;;;;;35.50;14.95;;;;;;;7.10;56.53;101302.19;1694759;83;25883;-61
2022/05/01 04:33:07;;;;;;;33.28;15.13;;;;;;;7.11;56.51;101302.62;1696628;83;98854;-59
2022/05/01 04:35:40;;;;;;;33.60;14.30;;;;;;;7.13;56.62;101308.80;1695216;84;27334;-59
2022/05/01 04:38:11;;;;;;;30.10;15.48;;;;;;;7.14;56.74;101312.77;1697476;82;25825;-60
2022/05/01 04:40:41;;;;;;;35.43;15.63;;;;;;;7.19;56.76;101311.34;1699510;82;98718;-59
2022/05/01 04:43:20;;;;;;;34.60;14.47;;;;;;;7.21;56.76;101310.86;1690674;84;26476;-59
2022/05/01 04:45:50;;;;;;;31.10;15.08;;;;;;;7.24;56.81;101312.59;1695141;82;98637;-60
2022/05/01 04:48:18;;;;;;;35.85;15.32;;;;;;;7.26;56.86;101314.78;1700116;84;28158;-61
2022/05/01 04:50:48;;;;;;;36.38;15.35;;;;;;;7.29;56.87;101315.59;1697045;82;98972;-60
2022/05/01 04:53:18;;;;;;;34.08;15.58;;;;;;;7.33;56.88;101313.75;1662394;85;26249;-60
2022/05/01 04:55:47;;;;;;;33.40;15.72;;;;;;;7.35;56.95;101318.60;1670051;85;25781;-60
2022/05/01 04:58:17;;;;;;;33.18;14.47;;;;;;;7.40;57.01;101314.06;1661110;85;98874;-60
2022/05/01 05:00:46;;;;;;;32.15;15.30;;;;;;;7.45;57.07;101317.52;1667171;85;27413;-60
2022/05/01 05:03:19;;;;;;;42.95;16.20;;;;;;;7.49;57.07;101320.09;1664996;85;99050;-60
2022/05/01 05:05:44;;;;;;;40.73;16.10;;;;;;;7.53;57.08;101316.91;1669283;85;30886;-60
2022/05/01 05:10:56;;;;;;;40.48;14.75;;;;;;;7.65;57.11;101321.11;1667461;85;98840;-60
2022/05/01 05:13:27;;;;;;;33.45;14.70;;;;;;;7.72;57.12;101318.28;1667807;84;29589;-60
2022/05/01 05:15:58;;;;;;;34.83;15.23;;;;;;;7.78;57.15;101315.95;1669890;85;98782;-61
2022/05/01 05:18:20;;;;;;;31.30;15.15;;;;;;;7.87;57.13;101322.39;1664820;85;25740;-61
2022/05/01 05:20:46;;;;;;;39.00;15.48;;;;;;;7.93;57.10;101330.27;1657833;84;99018;-60
2022/05/01 05:23:12;;;;;;;29.87;14.45;;;;;;;8.02;57.07;101323.84;1660528;85;25899;-60
2022/05/01 05:25:39;;;;;;;33.73;14.07;;;;;;;8.09;57.02;101325.02;1612814;87;26926;-61
2022/05/01 05:28:07;;;;;;;30.90;13.45;;;;;;;8.18;57.00;101329.27;1664730;85;99207;-62
2022/05/01 05:30:35;;;;;;;28.55;14.03;;;;;;;8.26;56.96;101321.08;1668763;85;26342;-59
2022/05/01 05:33:04;;;;;;;31.60;13.15;;;;;;;8.37;56.87;101318.63;1663823;85;99604;-59
2022/05/01 05:35:33;;;;;;;28.23;14.45;;;;;;;8.50;56.81;101323.67;1641804;85;25772;-62
2022/05/01 05:37:59;;;;;;;36.73;15.72;;;;;;;8.60;56.73;101322.08;1661553;85;27459;-61
2022/05/01 05:40:25;;;;;;;34.08;14.68;;;;;;;8.69;56.65;101327.20;1656422;86;98990;-61
2022/05/01 05:42:51;;;;;;;32.50;13.95;;;;;;;8.79;56.58;101319.37;1660790;85;25785;-61
2022/05/01 05:45:20;;;;;;;26.90;13.62;;;;;;;8.90;56.51;101320.89;1654482;85;98839;-61
2022/05/01 05:47:48;;;;;;;32.75;14.83;;;;;;;9.01;56.43;101325.05;1658316;86;25740;-61
2022/05/01 05:50:16;;;;;;;38.73;13.60;;;;;;;9.12;56.33;101326.09;1654115;86;27499;-61
2022/05/01 05:52:43;;;;;;;31.48;14.07;;;;;;;9.23;56.25;101325.35;1654372;86;98896;-61
2022/05/01 05:55:09;;;;;;;28.47;13.22;;;;;;;9.34;56.19;101328.61;1656615;86;25838;-61
2022/05/01 05:57:38;;;;;;;32.67;14.40;;;;;;;9.44;56.09;101326.56;1657437;86;98983;-61
2022/05/01 06:00:06;;;;;;;36.88;14.93;;;;;;;9.53;56.00;101326.77;1654216;86;25810;-61
2022/05/01 06:02:35;;;;;;;34.27;14.60;;;;;;;9.62;55.93;101321.16;1647092;85;27515;-61
2022/05/01 06:05:00;;;;;;;32.50;14.20;;;;;;;9.73;55.83;101324.41;1657263;86;99146;-61
2022/05/01 06:07:28;;;;;;;32.40;14.13;;;;;;;9.84;55.77;101320.95;1658192;85;25854;-61
2022/05/01 06:09:54;;;;;;;34.70;14.93;;;;;;;9.94;55.67;101324.23;1649839;85;99023;-61
2022/05/01 06:12:20;;;;;;;30.57;14.15;;;;;;;10.02;55.58;101329.78;1661186;85;25759;-61
2022/05/01 06:14:46;;;;;;;28.50;13.95;;;;;;;10.16;55.54;101329.36;1658802;85;99172;-61
2022/05/01 06:17:12;;;;;;;23.92;12.47;;;;;;;10.30;55.45;101327.16;1650638;86;26062;-61
2022/05/01 06:19:40;;;;;;;24.25;12.80;;;;;;;10.42;55.26;101324.52;1656600;86;26626;-61
2022/05/01 06:22:06;;;;;;;33.00;12.30;;;;;;;10.54;55.17;101325.47;1655594;86;99093;-61
2022/05/01 06:24:32;;;;;;;25.43;12.43;;;;;;;10.65;54.97;101324.66;1656042;86;25765;-61
2022/05/01 06:26:58;;;;;;;26.27;12.10;;;;;;;10.77;54.78;101326.52;1661967;86;99887;-61
2022/05/01 06:29:26;;;;;;;24.87;11.50;;;;;;;10.86;54.69;101321.73;1659009;85;25739;-61
2022/05/01 06:31:53;;;;;;;25.48;12.40;;;;;;;10.97;54.52;101320.02;1659783;86;26467;-60
2022/05/01 06:34:20;;;;;;;24.15;11.22;;;;;;;11.09;54.33;101317.38;1654467;84;99060;-60
2022/05/01 06:36:50;;;;;;;21.37;11.85;;;;;;;11.20;54.22;101320.56;1660192;86;25709;-60
2022/05/01 06:39:17;;;;;;;20.75;11.15;;;;;;;11.32;54.03;101321.02;1660818;85;99224;-60
2022/05/01 06:41:43;;;;;;;23.75;10.95;;;;;;;11.42;53.85;101319.34;1658277;86;27251;-60
2022/05/01 06:44:12;;;;;;;23.32;11.08;;;;;;;11.49;53.66;101319.06;1658830;86;25799;-60
2022/05/01 06:46:40;;;;;;;23.18;10.80;;;;;;;11.61;53.51;101321.77;1651583;86;99106;-60
2022/05/01 06:49:05;;;;;;;25.00;11.50;;;;;;;11.69;53.31;101319.67;1632089;87;25742;-62
2022/05/01 06:51:35;;;;;;;21.95;10.13;;;;;;;11.84;53.09;101323.62;1648410;85;99083;-62
2022/05/01 06:54:03;;;;;;;23.47;11.28;;;;;;;11.94;52.83;101323.22;1631287;87;25697;-60
2022/05/01 06:56:30;;;;;;;21.60;10.48;;;;;;;12.00;52.64;101326.14;1639717;85;26094;-60
2022/05/01 06:58:56;;;;;;;26.97;11.38;;;;;;;12.13;52.52;101327.89;1620974;86;99026;-60
2022/05/01 07:01:22;;;;;;;19.73;9.80;;;;;;;12.22;52.39;101320.81;1623524;86;25577;-60
2022/05/01 07:03:48;;;;;;;18.32;9.88;;;;;;;12.32;52.17;101316.36;1633972;85;98927;-60
2022/05/01 07:06:15;;;;;;;24.55;10.15;;;;;;;12.44;51.96;101313.64;1637824;85;25804;-60
2022/05/01 07:08:44;;;;;;;18.30;8.88;;;;;;;12.55;51.80;101320.80;1664967;84;99397;-60
2022/05/01 07:11:10;;;;;;;18.27;9.73;;;;;;;12.67;51.64;101325.69;1660520;86;25810;-60
2022/05/01 07:13:40;;;;;;;19.30;8.93;;;;;;;12.82;51.43;101319.27;1657287;85;25830;-60
2022/05/01 07:16:05;;;;;;;16.42;8.33;;;;;;;12.90;51.17;101327.89;1658233;86;98899;-60
2022/05/01 07:18:36;;;;;;;20.27;8.80;;;;;;;12.96;50.99;101320.43;1658521;86;26031;-60
2022/05/01 07:21:04;;;;;;;21.50;9.28;;;;;;;13.07;50.84;101328.02;1653476;86;99180;-61
2022/05/01 07:23:30;;;;;;;16.07;7.60;;;;;;;13.17;50.61;101324.02;1656816;85;25756;-60
2022/05/01 07:25:57;;;;;;;21.65;7.00;;;;;;;13.28;50.39;101323.08;1657491;86;25754;-60
2022/05/01 07:28:25;;;;;;;17.25;7.80;;;;;;;13.38;50.19;101322.20;1658616;86;98839;-60
2022/05/01 07:30:53;;;;;;;13.10;7.35;;;;;;;13.46;49.96;101320.52;1657319;86;25805;-60
2022/05/01 07:33:22;;;;;;;15.93;7.03;;;;;;;13.55;49.73;101319.64;1655490;86;98982;-62
2022/05/01 07:35:48;;;;;;;12.98;7.25;;;;;;;13.62;49.40;101316.20;1661600;86;26429;-61
2022/05/01 07:38:14;;;;;;;14.90;7.37;;;;;;;13.68;49.25;101315.05;1659155;85;26273;-60
2022/05/01 07:40:40;;;;;;;18.23;7.78;;;;;;;13.75;49.06;101315.17;1659108;86;98837;-61
2022/05/01 07:43:06;;;;;;;15.88;7.62;;;;;;;13.84;48.87;101313.40;1661673;84;25786;-60
2022/05/01 07:45:32;;;;;;;16.87;7.17;;;;;;;13.90;48.59;101312.64;1662670;86;98921;-60
2022/05/01 07:47:59;;;;;;;12.80;7.05;;;;;;;13.97;48.46;101311.41;1660067;86;25841;-60
2022/05/01 07:50:27;;;;;;;14.47;6.80;;;;;;;14.04;48.30;101312.47;1664064;85;25751;-61
2022/05/01 07:52:54;;;;;;;14.45;8.00;;;;;;;14.17;48.03;101309.59;1658087;84;98773;-60
2022/05/01 07:55:20;;;;;;;13.93;7.70;;;;;;;14.26;47.89;101314.55;1661093;86;25792;-60
2022/05/01 07:57:48;;;;;;;15.70;6.65;;;;;;;14.32;47.57;101310.69;1654722;86;99298;-61
2022/05/01 08:00:16;;;;;;;16.67;6.62;;;;;;;14.36;47.44;101302.38;1656749;86;25767;-61
2022/05/01 08:05:32;;;;;;;13.10;6.97;;;;;;;14.52;47.16;101298.02;1663465;86;28236;-60
2022/05/01 08:07:58;;;;;;;15.75;6.85;;;;;;;14.63;46.87;101292.56;1655537;86;27232;-60
2022/05/01 08:10:25;;;;;;;12.93;6.30;;;;;;;14.72;46.76;101296.14;1660017;86;98941;-60
2022/05/01 08:12:51;;;;;;;10.40;5.92;;;;;;;14.80;46.62;101293.94;1657795;85;25812;-61
2022/05/01 08:15:19;;;;;;;9.45;4.87;;;;;;;14.91;46.45;101291.56;1658452;86;99128;-61
2022/05/01 08:17:48;;;;;;;11.70;6.03;;;;;;;14.98;46.17;101295.70;1661652;86;27895;-61
2022/05/01 08:23:05;;;;;;;6.95;4.25;;;;;;;15.11;45.77;101294.59;1651626;86;98616;-61
2022/05/01 08:25:33;;;;;;;14.15;4.90;;;;;;;15.18;45.44;101300.07;1660836;86;25881;-61
2022/05/01 08:28:01;;;;;;;10.90;4.65;;;;;;;15.23;45.04;101289.91;1661043;86;98911;-61
2022/05/01 08:30:27;;;;;;;13.98;5.90;;;;;;;15.29;44.90;101285.53;1663903;86;28064;-61
2022/05/01 08:32:53;;;;;;;13.30;5.87;;;;;;;15.33;44.64;101289.81;1660293;86;99209;-60
2022/05/01 08:35:20;;;;;;;10.30;4.83;;;;;;;15.39;44.44;101289.97;1655603;86;25864;-60
2022/05/01 08:37:48;;;;;;;11.08;4.75;;;;;;;15.43;43.94;101289.73;1656410;85;26456;-60
2022/05/01 08:40:14;;;;;;;9.23;4.75;;;;;;;15.48;43.88;101289.48;1662527;85;98832;-60
2022/05/01 08:42:40;;;;;;;10.08;4.35;;;;;;;15.55;43.57;101283.67;1662258;85;27584;-59
2022/05/01 08:45:12;;;;;;;7.03;4.15;;;;;;;15.62;43.40;101278.80;1666812;85;99144;-59
2022/05/01 08:48:01;;;;;;;9.63;4.90;;;;;;;15.70;43.11;101276.56;1669122;85;26038;-60
2022/05/01 08:50:28;;;;;;;9.03;3.98;;;;;;;15.77;42.89;101282.02;1612789;87;25844;-60
2022/05/01 08:52:55;;;;;;;10.63;4.87;;;;;;;15.89;42.54;101277.30;1659262;85;98632;-61
2022/05/01 08:55:22;;;;;;;8.80;4.70;;;;;;;16.00;42.29;101275.34;1666037;85;28185;-60
2022/05/01 08:57:51;;;;;;;6.62;4.37;;;;;;;16.08;42.16;101278.97;1662903;85;98747;-60
2022/05/01 09:00:18;;;;;;;13.22;5.47;;;;;;;16.18;42.00;101278.38;1668074;85;26201;-61
2022/05/01 09:02:48;;;;;;;10.40;4.70;;;;;;;16.24;41.67;101275.80;1667784;85;99127;-60
2022/05/01 09:05:16;;;;;;;9.28;5.05;;;;;;;16.28;41.46;101276.02;1640805;85;25856;-61
2022/05/01 09:07:43;;;;;;;9.75;4.87;;;;;;;16.26;40.21;101275.71;1641321;85;27555;-60
2022/05/01 09:10:09;;;;;;;9.58;5.25;;;;;;;16.20;40.83;101273.75;1628127;85;98795;-60
2022/05/01 09:12:53;;;;;;;8.65;4.55;;;;;;;16.26;40.78;101269.82;1645957;85;25743;-60
2022/05/01 09:15:43;;;;;;;12.37;5.25;;;;;;;16.37;40.62;101268.73;1660599;85;99018;-61
2022/05/01 09:18:14;;;;;;;9.08;4.97;;;;;;;16.43;40.33;101268.38;1640320;85;25807;-60
2022/05/01 09:21:07;;;;;;;11.53;5.08;;;;;;;16.48;40.08;101268.98;1664832;84;98841;-61
2022/05/01 09:23:43;;;;;;;12.13;5.53;;;;;;;16.52;39.65;101265.61;1665823;84;25740;-61
2022/05/01 09:26:13;;;;;;;12.85;5.28;;;;;;;16.49;39.23;101270.72;1658516;84;26461;-60
2022/05/01 09:28:53;;;;;;;10.00;4.35;;;;;;;16.45;39.18;101265.09;1667378;84;98975;-60
2022/05/01 09:31:50;;;;;;;10.18;4.87;;;;;;;16.44;38.95;101260.65;1660396;84;25760;-60
2022/05/01 09:34:23;;;;;;;7.97;4.35;;;;;;;16.45;38.58;101258.81;1646434;84;99012;-60
2022/05/01 09:36:52;;;;;;;6.15;3.87;;;;;;;16.48;38.66;101260.86;1636909;85;26705;-61
2022/05/01 09:39:23;;;;;;;11.63;4.03;;;;;;;16.60;38.54;101255.21;1639770;85;98981;-61
2022/05/01 09:41:53;;;;;;;6.87;4.30;;;;;;;16.69;38.48;101253.35;1642788;86;25886;-61
2022/05/01 09:44:23;;;;;;;7.15;3.98;;;;;;;16.74;38.41;101253.95;1631489;86;25823;-60
2022/05/01 09:46:51;;;;;;;6.40;4.12;;;;;;;16.85;38.39;101252.83;1653658;86;98803;-60
2022/05/01 09:49:19;;;;;;;7.45;3.80;;;;;;;17.02;38.31;101243.70;1629214;86;26327;-60
2022/05/01 09:51:55;;;;;;;8.98;3.80;;;;;;;17.16;38.19;101253.69;1647571;86;98744;-61
2022/05/01 09:54:24;;;;;;;10.08;4.20;;;;;;;17.24;38.00;101246.45;1648536;86;25823;-60
2022/05/01 09:56:57;;;;;;;7.30;3.80;;;;;;;17.30;37.90;101245.59;1651449;86;108880;-60
2022/05/01 09:59:27;;;;;;;6.30;4.37;;;;;;;17.40;37.82;101242.70;1648012;86;28096;-60
2022/05/01 10:01:58;;;;;;;8.55;3.90;;;;;;;17.49;37.71;101237.19;1653879;86;26231;-61
2022/05/01 10:04:26;;;;;;;8.38;4.17;;;;;;;17.55;37.56;101226.44;1654850;85;98035;-62
2022/05/01 10:06:55;;;;;;;9.98;4.20;;;;;;;17.65;37.26;101228.47;1662381;85;26553;-61
2022/05/01 10:09:25;;;;;;;6.55;3.75;;;;;;;17.70;37.24;101231.80;1654085;85;98815;-61
2022/05/01 10:11:56;;;;;;;6.28;3.50;;;;;;;17.81;37.11;101226.56;1640728;86;28188;-60
2022/05/01 10:14:26;;;;;;;6.25;3.70;;;;;;;17.90;36.96;101228.29;1635415;87;25909;-61
2022/05/01 10:16:54;;;;;;;11.78;4.35;;;;;;;17.97;36.71;101223.73;1634438;87;98762;-60
2022/05/01 10:19:24;;;;;;;6.87;4.35;;;;;;;18.02;36.56;101220.72;1630215;87;26156;-60
2022/05/01 10:22:00;;;;;;;10.48;3.05;;;;;;;17.96;35.81;101220.63;1684083;83;98613;-61
2022/05/01 10:24:28;;;;;;;5.22;3.70;;;;;;;17.86;35.76;101209.99;1661104;84;28186;-60
2022/05/01 10:27:10;;;;;;;7.90;3.92;;;;;;;17.96;35.55;101210.27;1659152;85;98996;-60
2022/05/01 10:33:14;;;;;;;8.08;3.65;;;;;;;18.32;35.38;101199.67;1655415;86;99172;-60
2022/05/01 10:35:57;;;;;;;5.28;3.27;;;;;;;18.50;33.46;101205.22;1625021;86;25729;-59
2022/05/01 10:38:47;;;;;;;11.63;2.90;;;;;;;18.57;32.47;101207.03;1655016;85;28288;-60
2022/05/01 10:41:16;;;;;;;5.70;3.15;;;;;;;18.57;33.46;101207.52;1652320;84;98828;-59
2022/05/01 10:43:58;;;;;;;5.75;3.12;;;;;;;18.72;33.66;101207.87;1650726;85;25905;-59
2022/05/01 10:46:32;;;;;;;8.23;3.42;;;;;;;18.93;33.60;101198.24;1651403;85;98644;-61
2022/05/01 10:49:05;;;;;;;10.43;4.08;;;;;;;19.19;33.51;101201.86;1654536;85;25858;-61
2022/05/01 10:51:44;;;;;;;9.45;3.52;;;;;;;19.35;33.16;101196.20;1654119;85;98971;-61
2022/05/01 10:54:15;;;;;;;10.35;4.15;;;;;;;19.46;33.20;101201.25;1656557;85;25737;-61
2022/05/01 10:56:48;;;;;;;6.10;3.65;;;;;;;19.60;32.77;101198.06;1658664;85;25741;-60
2022/05/01 10:59:43;;;;;;;6.55;4.28;;;;;;;19.52;32.60;101191.82;1630101;85;98582;-60
2022/05/01 11:02:36;;;;;;;6.95;3.90;;;;;;;19.37;32.22;101197.83;1657039;86;26010;-60
2022/05/01 11:05:07;;;;;;;7.53;3.47;;;;;;;19.47;32.23;101185.81;1626970;85;98749;-60
2022/05/01 11:07:35;;;;;;;5.17;3.25;;;;;;;19.71;32.03;101186.79;1658401;86;26669;-60
2022/05/01 11:10:06;;;;;;;6.65;3.40;;;;;;;19.92;31.98;101175.31;1655216;86;98810;-60
2022/05/01 11:12:34;;;;;;;6.22;3.77;;;;;;;20.06;31.98;101183.33;1652344;86;26450;-59
2022/05/01 11:15:07;;;;;;;8.70;3.30;;;;;;;20.23;31.70;101185.66;1648847;86;98886;-60
2022/05/01 11:17:42;;;;;;;5.47;3.47;;;;;;;20.29;31.38;101185.69;1648647;86;27445;-60
2022/05/01 11:20:22;;;;;;;8.38;4.15;;;;;;;20.35;31.04;101175.20;1652818;86;25979;-60
2022/05/01 11:22:50;;;;;;;9.25;4.78;;;;;;;20.28;30.43;101175.78;1647009;86;98794;-59
2022/05/01 11:25:38;;;;;;;6.05;3.65;;;;;;;20.18;30.63;101171.52;1652697;86;26311;-59
2022/05/01 11:28:05;;;;;;;7.55;3.87;;;;;;;20.10;30.64;101171.23;1657542;85;98773;-59
2022/05/01 11:30:39;;;;;;;8.10;3.75;;;;;;;20.09;30.60;101171.72;1656485;85;27505;-59
2022/05/01 11:33:14;;;;;;;7.83;3.98;;;;;;;20.05;30.60;101170.70;1656031;85;98873;-60
2022/05/01 11:36:01;;;;;;;5.95;3.90;;;;;;;19.97;30.56;101167.68;1657062;86;25957;-60
2022/05/01 11:38:41;;;;;;;8.10;3.65;;;;;;;19.94;30.46;101165.19;1653825;86;25905;-60
2022/05/01 11:41:10;;;;;;;6.53;3.80;;;;;;;19.94;30.53;101164.70;1618388;86;99100;-61
2022/05/01 11:43:37;;;;;;;5.95;3.45;;;;;;;19.86;30.37;101169.83;1640520;85;27413;-60
2022/05/01 11:46:04;;;;;;;10.50;3.52;;;;;;;19.71;30.38;101165.03;1637579;85;98786;-60
2022/05/01 11:48:35;;;;;;;5.90;3.52;;;;;;;19.68;30.47;101161.66;1625752;86;25804;-61
2022/05/01 11:51:02;;;;;;;5.17;3.33;;;;;;;19.83;30.51;101161.03;1620535;86;98904;-62
2022/05/01 11:53:32;;;;;;;5.05;3.83;;;;;;;20.04;30.31;101152.64;1624258;86;25789;-61